Overseas Long Beach — WAAT — position and weather

sailwx.info

Track history (hours):
 
Tides and Currents Weather Stations Pressure Air Temp Water Temp Dewpoint Dewpoint Depression Visibility Wind Speed Wind Dir Waves Ship Positions

Overseas Long Beach

Owner: ASC Leasing II, Inc., Philadelphia, PA. More information available from US FCC via Universal Licensing System and Coast Guard Vessel Documentation Center.

Last reported at 2017-Mar-29 05:33 UTC. Time now 2017-Mar-30 02:33 UTC.
Position N 29°45' W 095°11'.

Length 181 m; draft 8.3 m.

Type: Tanker. MMSI: 367703000.

Date/timePositionNaut miles runAvg speedWind from/ knotsBaromVisibWave heightAir tempDewpointWater temp
2017-Mar-29 05:33N 29°45' W 095°11'6 6.3
2017-Mar-29 04:33N 29°45' W 095°04'9 9.5
2017-Mar-29 03:33N 29°38' W 094°58'1211.9
2017-Mar-29 02:33N 29°27' W 094°51'14114.1
2017-Mar-28 16:34N 28°02' W 092°43'6518.2
2017-Mar-28 13:00N 27°36' W 091°36'63612.8 150 / 131014.310.8 21.017.8
2017-Mar-26 11:28N 25°16' W 080°04'1111.6
2017-Mar-26 10:33N 25°26' W 079°60'1211.7
2017-Mar-26 09:33N 25°37' W 079°57'1111.5
2017-Mar-26 08:33N 25°48' W 079°57'1111.5
2017-Mar-26 07:33N 25°60' W 079°58'1111.4
2017-Mar-26 06:33N 26°11' W 079°58'1111.0
2017-Mar-26 05:33N 26°22' W 079°57'1110.7
2017-Mar-26 04:33N 26°33' W 079°56'1210.3
2017-Mar-26 03:24N 26°45' W 079°56'910.2
2017-Mar-26 02:33N 26°53' W 079°56'1010.4
2017-Mar-26 01:33N 27°04' W 079°57'  
2017-Mar-23 03:32N 27°04' W 079°54'1616.4
2017-Mar-23 02:33N 26°48' W 079°54'2316.5
2017-Mar-23 01:08N 26°24' W 079°55'1118.2
2017-Mar-23 00:33N 26°14' W 079°56'1818.1
2017-Mar-22 23:33N 25°56' W 079°57'1818.1
2017-Mar-22 22:33N 25°38' W 079°59'2017.6
2017-Mar-22 21:26N 25°18' W 079°60'33713.8
2017-Mar-21 21:00N 25°12' W 086°12'10913.6 070 / 91020.510.8 20.010.9
2017-Mar-21 13:00N 26°00' W 088°00'18615.5 080 / 71022.110.8 21.016.1
2017-Mar-21 01:00N 27°12' W 091°12'23011.8 130 / 71022.210.8 21.017.8
2017-Mar-20 05:23N 29°22' W 094°48'911.3
2017-Mar-20 04:34N 29°30' W 094°53'1110.5
2017-Mar-20 03:33N 29°40' W 094°58'8 8.1
2017-Mar-20 02:33N 29°46' W 095°05'5 5.2
2017-Mar-20 01:34N 29°45' W 095°11'  
Track history (hours):
 
Tides and Currents Weather Stations Pressure Air Temp Water Temp Dewpoint Dewpoint Depression Visibility Wind Speed Wind Dir Waves Ship Positions

Overseas Long Beach

Owner: ASC Leasing II, Inc., Philadelphia, PA. More information available from US FCC via Universal Licensing System and Coast Guard Vessel Documentation Center.

Last reported at 2017-Mar-29 05:33 UTC. Time now 2017-Mar-30 02:33 UTC.
Position N 29°45' W 095°11'.

Length 181 m; draft 8.3 m.

Type: Tanker. MMSI: 367703000.

Date/timePositionNaut miles runAvg speedWind from/ knotsBaromVisibWave heightAir tempDewpointWater temp
2017-Mar-29 05:33N 29°45' W 095°11'6 6.3
2017-Mar-29 04:33N 29°45' W 095°04'9 9.5
2017-Mar-29 03:33N 29°38' W 094°58'1211.9
2017-Mar-29 02:33N 29°27' W 094°51'14114.1
2017-Mar-28 16:34N 28°02' W 092°43'6518.2
2017-Mar-28 13:00N 27°36' W 091°36'63612.8 150 / 131014.310.8 21.017.8
2017-Mar-26 11:28N 25°16' W 080°04'1111.6
2017-Mar-26 10:33N 25°26' W 079°60'1211.7
2017-Mar-26 09:33N 25°37' W 079°57'1111.5
2017-Mar-26 08:33N 25°48' W 079°57'1111.5
2017-Mar-26 07:33N 25°60' W 079°58'1111.4
2017-Mar-26 06:33N 26°11' W 079°58'1111.0
2017-Mar-26 05:33N 26°22' W 079°57'1110.7
2017-Mar-26 04:33N 26°33' W 079°56'1210.3
2017-Mar-26 03:24N 26°45' W 079°56'910.2
2017-Mar-26 02:33N 26°53' W 079°56'1010.4
2017-Mar-26 01:33N 27°04' W 079°57'  
2017-Mar-23 03:32N 27°04' W 079°54'1616.4
2017-Mar-23 02:33N 26°48' W 079°54'2316.5
2017-Mar-23 01:08N 26°24' W 079°55'1118.2
2017-Mar-23 00:33N 26°14' W 079°56'1818.1
2017-Mar-22 23:33N 25°56' W 079°57'1818.1
2017-Mar-22 22:33N 25°38' W 079°59'2017.6
2017-Mar-22 21:26N 25°18' W 079°60'33713.8
2017-Mar-21 21:00N 25°12' W 086°12'10913.6 070 / 91020.510.8 20.010.9
2017-Mar-21 13:00N 26°00' W 088°00'18615.5 080 / 71022.110.8 21.016.1
2017-Mar-21 01:00N 27°12' W 091°12'23011.8 130 / 71022.210.8 21.017.8
2017-Mar-20 05:23N 29°22' W 094°48'911.3
2017-Mar-20 04:34N 29°30' W 094°53'1110.5
2017-Mar-20 03:33N 29°40' W 094°58'8 8.1
2017-Mar-20 02:33N 29°46' W 095°05'5 5.2
2017-Mar-20 01:34N 29°45' W 095°11'  

Dump ship's entire track history